Aviation Digital Data Service (ADDS)

Output produced by METARs form (0311 UTC 26 August 2016)
found at http://aviationweather.gov/adds/metars/
 
KOAJ 252323Z 2600/2624 15004KT P6SM SKC 
     FM260900 00000KT 5SM BR SCT050 
     FM261300 21004KT P6SM SCT200 AMD LTD TO CLD VIS AND WIND